Archival Weather

Greater Kankakee

Kankakee, Illinois (KIKK)

Report from: Tuesday, June 6, 2023 6:35 PM CDT
Current time: Friday, June 21, 2024 6:43 PM CDT

Current weather – Weather history – Daily summaries
Weather forecast

Temperature22.1°C (71.8°F)
Dew point13.2°C (55.8°F)
Winds 6 kts (3.1 m/s, 6.9 mph) North-Northeast (30°)
Visibility10 mi. (16.1 km)
Clouds Sky clear
Altimeter29.90 in.Hg (1013 mB)
Relative humidity57 %
Density altitude1,063 ft. (324 m)
Remarks Fully automated report
Automated weather observing station with precipitation discriminator
Present weather sensor not operating
Flight conditions Visual Meteorological Conditions
Raw dataKIKK 062335Z AUTO 03006KT 10SM CLR 22/13 A2990 RMK AO2 T02210132 PWINO
An error has occurred. This application may no longer respond until reloaded. Reload 🗙